This is the latest recevied weather packets stored in our database for station/object AI9F. If no packets are shown the sender has not sent any weather packets the latest 10 day(s).
| Time | Temp. | Humidity | Pressure | Rain* | Wind** | Luminosity | Snow |
|---|---|---|---|---|---|---|---|
| 1777673077 | 15.56° C | 49% | 1016.6 hPa | 0 mm | - | 368 W/m² | - |
| 1777672773 | 16.67° C | 43% | 1016.5 hPa | 0 mm | - | 103 W/m² | - |
| 1777672470 | 17.22° C | 39% | 1016.5 hPa | 0 mm | - | 451 W/m² | - |
| 1777672165 | 17.22° C | 42% | 1016.6 hPa | 0 mm | - | 470 W/m² | - |
| 1777671861 | 16.67° C | 42% | 1016.6 hPa | 0 mm | - | 461 W/m² | - |
| 1777671556 | 16.11° C | 44% | 1016.7 hPa | 0 mm | - | 465 W/m² | - |
| 1777671254 | 15.56° C | 41% | 1016.6 hPa | 0 mm | - | 474 W/m² | - |
| 1777670949 | 15° C | 49% | 1016.8 hPa | 0 mm | - | 421 W/m² | - |
| 1777670646 | 15° C | 49% | 1016.9 hPa | 0 mm | - | 166 W/m² | - |
| 1777670343 | 15° C | 48% | 1016.9 hPa | 0 mm | - | 167 W/m² | - |
| 1777670040 | 15.56° C | 43% | 1017.1 hPa | 0 mm | - | 154 W/m² | - |
| 1777669738 | 16.67° C | 44% | 1017.1 hPa | 0 mm | - | 128 W/m² | - |
| 1777669435 | 16.67° C | 46% | 1016.8 hPa | 0 mm | - | 655 W/m² | - |
| 1777669131 | 16.11° C | 44% | 1017.5 hPa | 0 mm | - | 191 W/m² | - |
| 1777668828 | 16.11° C | 45% | 1017.3 hPa | 0 mm | - | 666 W/m² | - |
| 1777668525 | 15.56° C | 50% | 1017.3 hPa | 0 mm | - | 300 W/m² | - |
| 1777668221 | 14.44° C | 50% | 1017.3 hPa | 0 mm | - | 309 W/m² | - |
| 1777667917 | 14.44° C | 46% | 1017.3 hPa | 0 mm | - | 190 W/m² | - |
| 1777667615 | 14.44° C | 46% | 1017.4 hPa | 0 mm | - | 142 W/m² | - |
| 1777667311 | 15° C | 49% | 1017.5 hPa | 0 mm | - | 138 W/m² | - |
| 1777667008 | 14.44° C | 52% | 1017.6 hPa | 0 mm | - | 157 W/m² | - |
| 1777666705 | 14.44° C | 51% | 1017.4 hPa | 0 mm | - | 143 W/m² | - |
| 1777666402 | 14.44° C | 46% | 1017.6 hPa | 0 mm | - | 87 W/m² | - |
| 1777666099 | 15° C | 46% | 1017.8 hPa | 0 mm | - | 117 W/m² | - |
| 1777665796 | 16.11° C | 44% | 1017.8 hPa | 0 mm | - | 189 W/m² | - |
* Rain latest hour (hover to see other rain measurements)
** Current wind speed in m/s (hover to see current wind gust speed)